Time;durP1;ratioP1;P1;durP2;ratioP2;P2;SDS_P1;SDS_P2;PMS_P1;PMS_P2;Temp;Humidity;BMP_temperature;BMP_pressure;BME280_temperature;BME280_humidity;BME280_pressure;Samples;Min_cycle;Max_cycle;Signal;HPM_P1;HPM_P2
2023/09/02 00:01:40;;;;;;;26.90;17.55;;;16.00;99.90;;;;;;5032189;28;20021;-89
2023/09/02 00:04:08;;;;;;;31.10;20.25;;;16.00;99.90;;;;;;5035046;28;20025;-90
2023/09/02 00:06:33;;;;;;;35.63;20.98;;;16.00;99.90;;;;;;5036175;28;20040;-89
2023/09/02 00:08:59;;;;;;;32.47;19.27;;;16.00;99.90;;;;;;5035286;28;20041;-90
2023/09/02 00:11:24;;;;;;;33.33;20.08;;;16.00;99.90;;;;;;5034390;28;20033;-91
2023/09/02 00:13:51;;;;;;;33.80;20.20;;;16.00;99.90;;;;;;5034538;28;20032;-90
2023/09/02 00:16:17;;;;;;;35.42;19.55;;;15.90;99.90;;;;;;5035898;28;20049;-90
2023/09/02 00:18:44;;;;;;;36.05;20.60;;;15.90;99.90;;;;;;5036057;28;20590;-90
2023/09/02 00:21:11;;;;;;;34.63;21.13;;;15.90;99.90;;;;;;5035935;28;20067;-90
2023/09/02 00:23:39;;;;;;;37.33;19.80;;;15.90;99.90;;;;;;5035721;28;20036;-88
2023/09/02 00:26:05;;;;;;;24.50;14.80;;;15.90;99.90;;;;;;5035723;28;20028;-87
2023/09/02 00:28:30;;;;;;;38.55;21.80;;;15.90;99.90;;;;;;5036023;28;20022;-89
2023/09/02 00:30:56;;;;;;;35.17;20.02;;;15.90;99.90;;;;;;5035179;28;20041;-90
2023/09/02 00:33:22;;;;;;;28.98;17.13;;;15.90;99.90;;;;;;5035746;28;20495;-90
2023/09/02 00:35:47;;;;;;;35.78;18.90;;;15.90;99.90;;;;;;5035894;28;20057;-90
2023/09/02 00:38:13;;;;;;;36.20;18.95;;;15.90;99.90;;;;;;5035785;28;20087;-90
2023/09/02 00:40:42;;;;;;;38.33;20.13;;;15.90;99.90;;;;;;5034756;28;20452;-90
2023/09/02 00:43:08;;;;;;;35.95;19.23;;;15.90;99.90;;;;;;5034196;28;20459;-90
2023/09/02 00:45:34;;;;;;;39.60;20.80;;;15.90;99.90;;;;;;5034883;28;20060;-90
2023/09/02 00:48:02;;;;;;;45.70;21.35;;;15.90;99.90;;;;;;5034738;28;20614;-88
2023/09/02 00:50:28;;;;;;;32.22;17.80;;;15.80;99.90;;;;;;5034791;28;20017;-90
2023/09/02 00:52:54;;;;;;;50.35;23.23;;;15.80;99.90;;;;;;5033611;28;20419;-90
2023/09/02 00:55:20;;;;;;;47.38;23.75;;;15.80;99.90;;;;;;5034726;28;20032;-90
2023/09/02 00:57:46;;;;;;;49.42;21.73;;;15.80;99.90;;;;;;5034284;28;20124;-90
2023/09/02 01:00:13;;;;;;;42.92;22.38;;;15.80;99.90;;;;;;5033984;28;20028;-90
2023/09/02 01:02:39;;;;;;;42.72;21.45;;;15.80;99.90;;;;;;5034870;28;20026;-90
2023/09/02 01:05:05;;;;;;;49.63;23.42;;;15.80;99.90;;;;;;5033967;28;20503;-91
2023/09/02 01:07:33;;;;;;;49.60;22.70;;;15.80;99.90;;;;;;5033886;28;20045;-89
2023/09/02 01:09:59;;;;;;;45.60;22.02;;;15.80;99.90;;;;;;5034299;28;20044;-90
2023/09/02 01:12:26;;;;;;;49.20;21.67;;;15.80;99.90;;;;;;5035020;28;20112;-89
2023/09/02 01:14:52;;;;;;;49.65;22.27;;;15.70;99.90;;;;;;5033936;28;20021;-90
2023/09/02 01:17:17;;;;;;;56.17;23.52;;;15.70;99.90;;;;;;5033968;28;20034;-89
2023/09/02 01:19:44;;;;;;;60.28;25.63;;;15.70;99.90;;;;;;5034831;28;20030;-89
2023/09/02 01:22:22;;;;;;;53.13;24.27;;;15.70;99.90;;;;;;5033817;28;20030;-89
2023/09/02 01:24:57;;;;;;;59.05;23.73;;;15.70;99.90;;;;;;5033699;28;20100;-89
2023/09/02 01:27:24;;;;;;;57.20;25.52;;;15.70;99.90;;;;;;5034938;28;20025;-88
2023/09/02 01:30:06;;;;;;;57.13;24.70;;;15.70;99.90;;;;;;5034612;28;20029;-89
2023/09/02 01:32:43;;;;;;;59.88;25.23;;;15.60;99.90;;;;;;5033318;28;20110;-90
2023/09/02 01:35:14;;;;;;;65.95;27.38;;;15.60;99.90;;;;;;5034744;28;20029;-89
2023/09/02 01:37:44;;;;;;;65.90;28.55;;;15.60;99.90;;;;;;5034607;28;20041;-89
2023/09/02 01:40:27;;;;;;;58.10;24.43;;;15.50;99.90;;;;;;5033317;28;20032;-89
2023/09/02 01:42:56;;;;;;;67.05;27.20;;;15.50;99.90;;;;;;5032790;28;20369;-90
2023/09/02 01:45:25;;;;;;;68.25;26.58;;;15.50;99.90;;;;;;5032712;28;20116;-90
2023/09/02 01:47:51;;;;;;;64.50;26.65;;;15.50;99.90;;;;;;5034188;28;20025;-90
2023/09/02 01:50:21;;;;;;;78.03;29.85;;;15.50;99.90;;;;;;5037464;28;20028;-90
2023/09/02 01:52:48;;;;;;;88.30;31.75;;;15.50;99.90;;;;;;5035937;28;20030;-89
2023/09/02 01:55:15;;;;;;;69.00;27.50;;;15.40;99.90;;;;;;5033932;28;20052;-89
2023/09/02 01:57:41;;;;;;;71.55;28.08;;;15.50;99.90;;;;;;5033368;28;20107;-88
2023/09/02 02:00:08;;;;;;;77.15;30.08;;;15.40;99.90;;;;;;5033705;28;20089;-89
2023/09/02 02:02:36;;;;;;;68.20;27.70;;;15.40;99.90;;;;;;5032697;28;20095;-89
2023/09/02 02:05:05;;;;;;;69.82;26.25;;;15.40;99.90;;;;;;5032730;28;20078;-89
2023/09/02 02:07:35;;;;;;;58.03;25.55;;;15.30;99.90;;;;;;5032556;28;20050;-90
2023/09/02 02:10:06;;;;;;;62.13;25.92;;;15.30;99.90;;;;;;5034229;28;20017;-89
2023/09/02 02:12:32;;;;;;;62.30;27.30;;;15.30;99.90;;;;;;5032778;28;20504;-89
2023/09/02 02:14:57;;;;;;;74.95;29.65;;;15.30;99.90;;;;;;5033412;28;20063;-90
2023/09/02 02:17:23;;;;;;;72.65;29.23;;;15.20;99.90;;;;;;5033558;28;20029;-89
2023/09/02 02:19:49;;;;;;;68.50;28.15;;;15.20;99.90;;;;;;5032128;28;20116;-89
2023/09/02 02:22:14;;;;;;;78.38;31.75;;;15.20;99.90;;;;;;5033165;28;20018;-89
2023/09/02 02:24:40;;;;;;;68.68;27.98;;;15.20;99.90;;;;;;5031976;28;20492;-89
2023/09/02 02:27:06;;;;;;;71.75;29.10;;;15.10;99.90;;;;;;5032333;28;20029;-90
2023/09/02 02:29:32;;;;;;;81.95;30.63;;;15.10;99.90;;;;;;5032270;28;20025;-90
2023/09/02 02:31:57;;;;;;;72.63;29.38;;;15.10;99.90;;;;;;5032082;28;20132;-90
2023/09/02 02:34:25;;;;;;;64.28;26.60;;;15.10;99.90;;;;;;5033719;28;20021;-90
2023/09/02 02:36:51;;;;;;;70.47;27.15;;;15.10;99.90;;;;;;5032793;28;20033;-90
2023/09/02 02:39:17;;;;;;;68.38;27.95;;;15.10;99.90;;;;;;5033697;28;20056;-90
2023/09/02 02:41:43;;;;;;;71.70;29.00;;;15.10;99.90;;;;;;5032474;28;20468;-90
2023/09/02 02:44:09;;;;;;;69.57;26.75;;;15.00;99.90;;;;;;5032093;28;20036;-89
2023/09/02 02:46:34;;;;;;;69.97;28.42;;;15.00;99.90;;;;;;5032903;28;20017;-91
2023/09/02 02:49:00;;;;;;;80.22;30.35;;;15.00;99.90;;;;;;5032186;28;20025;-90
2023/09/02 02:51:26;;;;;;;74.95;28.52;;;15.00;99.90;;;;;;5032100;28;20026;-90
2023/09/02 02:53:51;;;;;;;71.22;28.70;;;15.00;99.90;;;;;;5032091;28;20029;-90
2023/09/02 02:56:17;;;;;;;65.47;27.02;;;15.10;99.90;;;;;;5031591;28;20060;-90
2023/09/02 02:58:43;;;;;;;70.07;26.60;;;15.10;99.90;;;;;;5031551;28;20522;-90
2023/09/02 03:01:11;;;;;;;68.13;29.23;;;15.00;99.90;;;;;;5031816;28;20026;-90
2023/09/02 03:03:36;;;;;;;74.10;29.83;;;15.00;99.90;;;;;;5031623;28;20044;-90
2023/09/02 03:06:03;;;;;;;68.28;28.88;;;15.00;99.90;;;;;;5031514;28;20017;-90
2023/09/02 03:08:29;;;;;;;66.80;28.13;;;15.10;99.90;;;;;;5031521;28;20440;-90
2023/09/02 03:10:59;;;;;;;71.82;27.20;;;15.00;99.90;;;;;;5031781;28;20547;-90
2023/09/02 03:13:25;;;;;;;72.85;27.92;;;15.00;99.90;;;;;;5031725;28;20496;-90
2023/09/02 03:15:56;;;;;;;76.95;28.83;;;15.00;99.90;;;;;;5031376;28;20113;-90
2023/09/02 03:18:22;;;;;;;80.22;30.70;;;15.00;99.90;;;;;;5031865;28;20030;-90
2023/09/02 03:20:48;;;;;;;72.78;28.73;;;15.00;99.90;;;;;;5031442;28;20048;-90
2023/09/02 03:23:14;;;;;;;69.90;29.55;;;15.00;99.90;;;;;;5031382;28;20025;-91
2023/09/02 03:25:40;;;;;;;79.15;30.08;;;15.00;99.90;;;;;;5032855;28;20029;-89
2023/09/02 03:28:06;;;;;;;61.25;25.08;;;15.00;99.90;;;;;;5031951;28;20056;-89
2023/09/02 03:30:32;;;;;;;71.25;28.63;;;15.00;99.90;;;;;;5031099;28;20029;-90
2023/09/02 03:32:58;;;;;;;69.70;27.50;;;15.00;99.90;;;;;;5031254;28;20021;-90
2023/09/02 03:35:24;;;;;;;74.80;28.92;;;15.10;99.90;;;;;;5032160;28;20026;-90
2023/09/02 03:37:50;;;;;;;70.22;28.17;;;15.00;99.90;;;;;;5032819;28;20037;-89
2023/09/02 03:40:15;;;;;;;67.72;28.73;;;15.10;99.90;;;;;;5036568;28;20408;-90
2023/09/02 03:42:41;;;;;;;65.93;27.80;;;15.10;99.90;;;;;;5035890;28;20038;-90
2023/09/02 03:45:11;;;;;;;69.03;27.40;;;15.10;99.90;;;;;;5036067;28;20025;-91
2023/09/02 03:47:37;;;;;;;71.88;28.58;;;15.10;99.90;;;;;;5036421;28;20029;-90
2023/09/02 03:50:03;;;;;;;75.75;29.40;;;15.10;99.90;;;;;;5035823;28;20022;-90
2023/09/02 03:52:29;;;;;;;79.43;29.58;;;15.10;99.90;;;;;;5038761;28;20087;-89
2023/09/02 03:54:56;;;;;;;85.82;31.05;;;15.10;99.90;;;;;;5037725;28;20469;-91
2023/09/02 03:57:21;;;;;;;86.65;30.55;;;15.10;99.90;;;;;;5035497;28;20048;-91
2023/09/02 03:59:47;;;;;;;80.13;29.58;;;15.10;99.90;;;;;;5034811;28;20025;-90
2023/09/02 04:02:13;;;;;;;87.28;32.42;;;15.10;99.90;;;;;;5035758;28;20032;-89
2023/09/02 04:04:39;;;;;;;77.80;29.92;;;15.00;99.90;;;;;;5036158;28;20018;-91
2023/09/02 04:07:05;;;;;;;88.00;32.03;;;15.10;99.90;;;;;;5035962;28;20040;-91
2023/09/02 04:09:31;;;;;;;89.05;33.22;;;15.00;99.90;;;;;;5035906;28;20053;-90
2023/09/02 04:11:58;;;;;;;84.50;32.42;;;15.00;99.90;;;;;;5035413;28;20480;-91
2023/09/02 04:14:24;;;;;;;91.50;34.67;;;15.10;99.90;;;;;;5036659;28;20056;-89
2023/09/02 04:16:51;;;;;;;65.97;25.23;;;15.10;99.90;;;;;;5036994;28;20045;-89
2023/09/02 04:19:17;;;;;;;85.50;31.95;;;15.10;99.90;;;;;;5039195;28;20068;-89
2023/09/02 04:21:43;;;;;;;87.38;33.45;;;15.00;99.90;;;;;;5040418;28;20018;-91
2023/09/02 04:24:09;;;;;;;88.90;32.20;;;15.00;99.90;;;;;;5035825;28;20116;-90
2023/09/02 04:26:35;;;;;;;74.90;29.27;;;15.00;99.90;;;;;;5035987;28;20507;-90
2023/09/02 04:29:00;;;;;;;83.15;32.40;;;15.00;99.90;;;;;;5035720;28;20032;-89
2023/09/02 04:31:26;;;;;;;82.00;31.05;;;15.00;99.90;;;;;;5034943;28;20029;-91
2023/09/02 04:33:52;;;;;;;78.10;32.00;;;15.00;99.90;;;;;;5035155;28;20029;-89
2023/09/02 04:36:17;;;;;;;67.47;26.52;;;15.00;99.90;;;;;;5036047;28;20556;-90
2023/09/02 04:38:43;;;;;;;79.45;32.35;;;15.00;99.90;;;;;;5036044;28;20059;-89
2023/09/02 04:41:09;;;;;;;74.75;29.92;;;14.90;99.90;;;;;;5036040;28;20071;-89
2023/09/02 04:43:35;;;;;;;63.95;27.38;;;14.90;99.90;;;;;;5018036;28;20048;-89
2023/09/02 04:46:04;;;;;;;77.85;29.58;;;14.90;99.90;;;;;;5022990;28;20108;-90
2023/09/02 04:48:30;;;;;;;68.93;28.42;;;15.00;99.90;;;;;;5032246;28;20140;-89
2023/09/02 04:50:56;;;;;;;58.42;25.25;;;15.00;99.90;;;;;;5034135;28;20021;-89
2023/09/02 04:53:23;;;;;;;63.55;27.83;;;15.00;99.90;;;;;;5033483;28;20045;-91
2023/09/02 04:55:49;;;;;;;53.90;23.75;;;15.00;99.90;;;;;;5033426;28;20425;-89
2023/09/02 04:58:15;;;;;;;50.15;23.52;;;15.00;99.90;;;;;;5031033;28;20205;-90
2023/09/02 05:00:41;;;;;;;62.40;28.63;;;15.00;99.90;;;;;;5033301;28;20059;-90
2023/09/02 05:03:08;;;;;;;53.20;24.27;;;15.00;99.90;;;;;;5034086;28;20053;-89
2023/09/02 05:05:34;;;;;;;47.10;22.75;;;14.90;99.90;;;;;;5033202;28;20021;-90
2023/09/02 05:08:00;;;;;;;57.53;24.58;;;14.90;99.90;;;;;;5034324;28;20053;-90
2023/09/02 05:10:26;;;;;;;46.53;23.52;;;14.90;99.90;;;;;;5033042;28;20032;-89
2023/09/02 05:12:52;;;;;;;52.53;23.27;;;14.90;99.90;;;;;;5033885;28;20029;-88
2023/09/02 05:15:18;;;;;;;45.55;22.13;;;14.90;99.90;;;;;;5034019;28;20032;-88
2023/09/02 05:17:44;;;;;;;47.35;22.40;;;14.90;99.90;;;;;;5034276;28;20033;-89
2023/09/02 05:20:10;;;;;;;49.25;23.33;;;14.80;99.90;;;;;;5034306;28;20082;-89
2023/09/02 05:22:36;;;;;;;49.60;24.45;;;14.90;99.90;;;;;;5033076;28;20040;-90
2023/09/02 05:25:03;;;;;;;60.88;26.40;;;14.80;99.90;;;;;;5033566;28;20037;-90
2023/09/02 05:27:29;;;;;;;68.07;28.48;;;14.80;99.90;;;;;;5034919;28;20507;-90
2023/09/02 05:29:55;;;;;;;61.22;27.33;;;14.80;99.90;;;;;;5033477;28;20029;-89
2023/09/02 05:32:21;;;;;;;64.97;27.65;;;14.80;99.90;;;;;;5033471;28;20140;-91
2023/09/02 05:34:46;;;;;;;68.35;29.05;;;14.80;99.90;;;;;;5034347;28;20018;-91
2023/09/02 05:37:12;;;;;;;64.57;29.67;;;14.80;99.90;;;;;;5034395;28;20091;-89
2023/09/02 05:39:38;;;;;;;63.70;28.30;;;14.80;99.90;;;;;;5034338;28;20072;-91
2023/09/02 05:42:04;;;;;;;58.13;26.05;;;14.80;99.90;;;;;;5034241;28;20029;-91
2023/09/02 05:44:31;;;;;;;48.78;22.35;;;14.80;99.90;;;;;;5034036;28;20033;-91
2023/09/02 05:46:56;;;;;;;52.83;24.30;;;14.80;99.90;;;;;;5034388;28;20036;-90
2023/09/02 05:49:22;;;;;;;58.80;25.83;;;14.80;99.90;;;;;;5034492;28;20018;-90
2023/09/02 05:51:47;;;;;;;43.97;20.92;;;14.80;99.90;;;;;;5034878;28;20026;-89
2023/09/02 05:54:13;;;;;;;55.80;24.90;;;14.70;99.90;;;;;;5035852;28;20026;-89
2023/09/02 05:56:39;;;;;;;59.60;26.48;;;14.80;99.90;;;;;;5037936;28;20025;-90
2023/09/02 05:59:05;;;;;;;52.65;24.25;;;14.80;99.90;;;;;;5032688;28;20044;-89
2023/09/02 06:01:31;;;;;;;58.90;26.40;;;14.80;99.90;;;;;;5033612;28;20056;-89
2023/09/02 06:03:57;;;;;;;59.78;28.40;;;14.80;99.90;;;;;;5032333;28;20426;-91
2023/09/02 06:06:24;;;;;;;47.25;22.15;;;14.80;99.90;;;;;;5032884;28;20026;-91
2023/09/02 06:08:50;;;;;;;46.88;24.45;;;14.80;99.90;;;;;;5033352;28;20072;-91
2023/09/02 06:11:15;;;;;;;56.88;25.85;;;14.80;99.90;;;;;;5032735;28;20035;-89
2023/09/02 06:13:41;;;;;;;53.47;25.15;;;14.80;99.90;;;;;;5032491;28;20025;-90
2023/09/02 06:16:07;;;;;;;53.95;24.83;;;14.80;99.90;;;;;;5032610;28;20400;-90
2023/09/02 06:18:35;;;;;;;58.28;25.42;;;14.80;99.90;;;;;;5033587;28;20033;-91
2023/09/02 06:21:11;;;;;;;56.13;26.83;;;14.90;99.90;;;;;;5032132;28;20472;-90
2023/09/02 06:23:40;;;;;;;60.70;27.67;;;14.90;99.90;;;;;;5032049;28;20029;-88
2023/09/02 06:26:06;;;;;;;56.38;25.17;;;14.90;99.90;;;;;;5033315;28;20021;-90
2023/09/02 06:28:33;;;;;;;54.40;25.98;;;15.00;99.90;;;;;;5032385;28;20036;-90
2023/09/02 06:31:03;;;;;;;57.10;27.15;;;15.00;99.90;;;;;;5032805;28;20021;-90
2023/09/02 06:33:29;;;;;;;52.17;25.55;;;15.00;99.90;;;;;;5033254;28;20075;-90
2023/09/02 06:35:55;;;;;;;56.00;27.58;;;15.10;99.90;;;;;;5032250;28;20034;-89
2023/09/02 06:38:23;;;;;;;53.42;25.30;;;15.10;99.90;;;;;;5033353;28;20476;-90
2023/09/02 06:40:49;;;;;;;54.38;24.88;;;15.10;99.90;;;;;;5032448;28;20036;-88
2023/09/02 06:43:26;;;;;;;50.67;24.85;;;15.20;99.90;;;;;;5024254;28;20033;-90
2023/09/02 06:45:52;;;;;;;52.53;25.33;;;15.20;99.90;;;;;;5032790;28;20125;-89
2023/09/02 06:48:17;;;;;;;40.15;21.40;;;15.30;99.90;;;;;;5032137;28;20021;-90
2023/09/02 06:50:48;;;;;;;50.40;23.92;;;15.20;99.90;;;;;;5031942;28;20104;-91
2023/09/02 06:53:13;;;;;;;52.30;24.27;;;15.30;99.90;;;;;;5031389;28;20440;-89
2023/09/02 06:55:39;;;;;;;44.97;22.73;;;15.40;99.90;;;;;;5032850;28;20117;-89
2023/09/02 06:58:04;;;;;;;43.47;21.05;;;15.40;99.90;;;;;;5031536;28;20109;-91
2023/09/02 07:00:30;;;;;;;45.33;22.75;;;15.40;99.90;;;;;;5031271;28;20025;-90
2023/09/02 07:02:56;;;;;;;40.03;21.00;;;15.50;99.90;;;;;;5031429;28;20084;-91
2023/09/02 07:05:21;;;;;;;42.40;21.75;;;15.50;99.90;;;;;;5031119;28;20033;-90
2023/09/02 07:07:47;;;;;;;47.72;23.92;;;15.50;99.90;;;;;;5031330;28;20076;-91
2023/09/02 07:10:12;;;;;;;54.65;24.73;;;15.60;99.90;;;;;;5031597;28;20034;-90
2023/09/02 07:12:38;;;;;;;57.58;25.90;;;15.60;99.90;;;;;;5031366;28;20030;-90
2023/09/02 07:15:04;;;;;;;49.90;24.15;;;15.60;99.90;;;;;;5031931;28;20468;-90
2023/09/02 07:17:30;;;;;;;44.17;22.40;;;15.60;99.90;;;;;;5032273;28;20033;-90
2023/09/02 07:19:55;;;;;;;44.88;21.63;;;15.60;99.90;;;;;;5032793;28;20033;-91
2023/09/02 07:22:21;;;;;;;40.58;21.25;;;15.70;99.90;;;;;;5033193;28;20030;-89
2023/09/02 07:24:49;;;;;;;43.83;20.90;;;15.70;99.90;;;;;;5031987;28;20029;-90
2023/09/02 07:27:15;;;;;;;41.17;21.35;;;15.80;99.90;;;;;;5028547;28;20028;-90
2023/09/02 07:29:40;;;;;;;45.70;22.83;;;15.80;99.90;;;;;;5031410;28;20484;-90
2023/09/02 07:32:06;;;;;;;39.25;20.95;;;15.90;99.90;;;;;;5029404;28;20021;-89
2023/09/02 07:34:37;;;;;;;44.63;21.17;;;15.90;99.90;;;;;;5028634;28;20038;-89
2023/09/02 07:37:03;;;;;;;40.85;21.48;;;15.90;99.90;;;;;;5021119;28;20104;-89
2023/09/02 07:39:28;;;;;;;38.25;21.60;;;16.00;99.90;;;;;;5027567;28;20021;-89
2023/09/02 07:41:54;;;;;;;39.88;20.10;;;16.00;99.90;;;;;;5018163;28;20032;-88
2023/09/02 07:44:20;;;;;;;38.47;19.10;;;16.10;99.90;;;;;;5011642;28;20036;-89
2023/09/02 07:46:45;;;;;;;36.17;18.73;;;16.10;99.90;;;;;;5011866;28;20026;-89
2023/09/02 07:49:11;;;;;;;37.60;18.40;;;16.20;99.90;;;;;;5012154;28;20048;-90
2023/09/02 07:51:36;;;;;;;33.70;17.98;;;16.20;99.90;;;;;;5014304;28;20181;-90
2023/09/02 07:54:02;;;;;;;43.47;21.25;;;16.20;99.90;;;;;;5013395;28;20049;-88
2023/09/02 07:56:28;;;;;;;45.55;21.05;;;16.20;99.90;;;;;;5020628;28;20045;-89
2023/09/02 07:58:53;;;;;;;44.80;21.48;;;16.20;99.90;;;;;;5016106;28;20038;-90
2023/09/02 08:01:22;;;;;;;43.35;21.80;;;16.20;99.90;;;;;;5013023;28;20493;-90
2023/09/02 08:03:48;;;;;;;42.80;22.15;;;16.20;99.90;;;;;;5017668;28;20022;-90
2023/09/02 08:06:14;;;;;;;40.05;20.60;;;16.20;99.90;;;;;;5023803;28;20026;-89
2023/09/02 08:08:40;;;;;;;35.55;19.02;;;16.30;99.90;;;;;;5030762;28;20118;-88
2023/09/02 08:11:06;;;;;;;32.80;18.63;;;16.30;99.90;;;;;;5030533;28;20033;-87
2023/09/02 08:13:32;;;;;;;31.85;17.98;;;16.30;99.90;;;;;;5030958;28;20468;-90
2023/09/02 08:16:02;;;;;;;34.67;17.38;;;16.40;99.90;;;;;;5031082;28;20052;-88
2023/09/02 08:18:28;;;;;;;27.23;15.90;;;16.40;99.90;;;;;;5032225;28;20129;-88
2023/09/02 08:20:54;;;;;;;27.23;15.40;;;16.50;99.90;;;;;;5032653;28;20121;-88
2023/09/02 08:23:20;;;;;;;26.90;14.80;;;16.50;99.90;;;;;;5022797;28;20029;-89
2023/09/02 08:25:45;;;;;;;25.42;13.77;;;16.60;99.90;;;;;;5030764;28;20022;-91
2023/09/02 08:28:11;;;;;;;30.05;14.75;;;16.60;99.90;;;;;;5032132;28;20025;-94
2023/09/02 08:30:40;;;;;;;22.85;13.50;;;16.60;99.90;;;;;;5026886;28;20021;-94
2023/09/02 08:33:06;;;;;;;21.50;12.68;;;16.70;99.90;;;;;;5028490;28;20053;-93
2023/09/02 08:35:36;;;;;;;26.05;13.63;;;16.70;99.90;;;;;;5024853;28;20049;-93
2023/09/02 08:38:05;;;;;;;24.08;13.73;;;16.70;99.90;;;;;;5028483;28;20029;-93
2023/09/02 08:40:31;;;;;;;19.42;12.27;;;16.80;99.90;;;;;;5031443;28;20030;-92
2023/09/02 08:43:00;;;;;;;26.30;13.25;;;16.80;99.90;;;;;;5028682;28;20034;-93
2023/09/02 08:45:28;;;;;;;17.88;11.00;;;16.90;99.90;;;;;;5031798;28;20032;-93
2023/09/02 08:48:01;;;;;;;19.95;10.73;;;17.00;99.90;;;;;;5024061;28;20025;-94
2023/09/02 08:50:33;;;;;;;15.65;9.48;;;17.00;99.90;;;;;;5023855;28;20021;-93
2023/09/02 08:52:59;;;;;;;22.95;12.18;;;17.10;99.90;;;;;;5028894;28;20036;-94
2023/09/02 08:55:27;;;;;;;16.88;10.20;;;17.20;99.90;;;;;;5038120;28;20028;-93
2023/09/02 08:57:54;;;;;;;18.35;9.77;;;17.30;99.90;;;;;;5035886;28;20029;-94
2023/09/02 09:00:19;;;;;;;16.63;8.93;;;17.40;99.90;;;;;;5034939;28;20033;-94
2023/09/02 09:02:46;;;;;;;10.27;6.80;;;17.50;99.90;;;;;;5035063;28;20032;-94
2023/09/02 09:05:12;;;;;;;18.10;6.95;;;17.60;99.90;;;;;;5035930;28;20085;-95
2023/09/02 09:07:40;;;;;;;9.30;6.72;;;17.80;99.90;;;;;;5032155;28;20108;-93
2023/09/02 09:10:10;;;;;;;10.00;6.30;;;17.90;99.90;;;;;;5035971;28;20036;-93
2023/09/02 09:12:36;;;;;;;11.48;5.53;;;18.00;99.90;;;;;;5035363;28;20032;-95
2023/09/02 09:15:02;;;;;;;10.27;5.57;;;18.20;99.90;;;;;;5034731;28;20116;-94
2023/09/02 09:17:30;;;;;;;8.88;5.10;;;18.40;99.90;;;;;;5034634;28;20087;-94
2023/09/02 09:19:59;;;;;;;8.48;4.75;;;18.60;99.90;;;;;;5034426;28;20129;-94
2023/09/02 09:22:28;;;;;;;5.05;2.83;;;18.80;99.90;;;;;;5038476;28;20085;-94
2023/09/02 09:24:54;;;;;;;5.85;2.80;;;18.90;99.90;;;;;;5039725;28;20026;-95
2023/09/02 09:27:20;;;;;;;5.68;2.72;;;19.10;99.90;;;;;;5035162;28;20052;-94
2023/09/02 09:29:48;;;;;;;7.30;2.63;;;19.20;99.90;;;;;;5035378;28;20026;-93
2023/09/02 09:32:15;;;;;;;7.32;3.15;;;19.40;99.90;;;;;;5036583;28;20083;-93
2023/09/02 09:34:43;;;;;;;10.05;3.63;;;19.50;99.90;;;;;;5033622;28;20032;-93
2023/09/02 09:37:09;;;;;;;5.88;3.28;;;19.60;99.90;;;;;;5033519;28;20040;-93
2023/09/02 09:39:46;;;;;;;5.28;3.05;;;19.70;99.90;;;;;;5033588;28;20116;-93
2023/09/02 09:42:14;;;;;;;6.03;3.45;;;19.90;99.90;;;;;;5033999;28;20033;-93
2023/09/02 09:44:57;;;;;;;7.28;4.30;;;20.00;99.90;;;;;;5033601;28;20021;-90
2023/09/02 09:47:25;;;;;;;7.07;3.25;;;20.10;99.90;;;;;;5031561;28;20028;-94
2023/09/02 09:49:50;;;;;;;7.28;3.15;;;20.20;99.90;;;;;;5033661;28;20043;-93
2023/09/02 09:52:20;;;;;;;7.72;3.67;;;20.30;99.90;;;;;;5028795;28;20021;-93
2023/09/02 09:54:47;;;;;;;9.55;3.20;;;20.40;99.90;;;;;;5042740;28;20036;-93
2023/09/02 09:57:36;;;;;;;6.65;3.05;;;20.60;99.90;;;;;;5044518;28;20075;-93
2023/09/02 10:00:05;;;;;;;4.97;3.13;;;20.80;99.90;;;;;;5038061;28;20029;-94
2023/09/02 10:02:30;;;;;;;3.83;2.40;;;20.90;99.90;;;;;;5035477;28;20484;-93
2023/09/02 10:04:58;;;;;;;7.05;3.30;;;20.90;99.90;;;;;;5035607;28;20032;-94
2023/09/02 10:07:26;;;;;;;6.32;3.35;;;21.00;99.90;;;;;;5034499;28;20037;-93
2023/09/02 10:09:56;;;;;;;7.07;2.97;;;21.10;99.90;;;;;;5036725;28;20029;-93
2023/09/02 10:12:25;;;;;;;5.88;2.83;;;21.30;99.90;;;;;;5038549;28;20033;-92
2023/09/02 10:14:51;;;;;;;7.83;4.73;;;21.40;99.90;;;;;;5036093;28;20181;-93
2023/09/02 10:17:18;;;;;;;7.78;3.45;;;21.50;99.90;;;;;;5036035;28;20533;-92
2023/09/02 10:19:46;;;;;;;7.78;3.03;;;21.40;99.90;;;;;;5041408;28;20026;-92
2023/09/02 10:22:21;;;;;;;6.03;2.97;;;21.40;99.90;;;;;;5040447;28;20029;-91
2023/09/02 10:24:59;;;;;;;5.50;3.10;;;21.20;99.90;;;;;;5040450;28;20021;-92
2023/09/02 10:27:26;;;;;;;7.05;2.85;;;21.10;99.90;;;;;;5039020;28;20048;-93
2023/09/02 10:29:57;;;;;;;5.63;2.50;;;21.00;99.90;;;;;;5037917;28;20055;-80
2023/09/02 10:32:45;;;;;;;8.57;2.78;;;20.80;99.90;;;;;;5035540;28;20115;-95
2023/09/02 10:35:19;;;;;;;4.53;2.50;;;21.00;99.90;;;;;;5034121;28;20051;-95
2023/09/02 10:37:54;;;;;;;7.65;3.15;;;21.30;99.90;;;;;;5036302;28;20028;-93
2023/09/02 10:40:24;;;;;;;4.10;2.30;;;21.50;99.90;;;;;;5033963;28;20037;-93
2023/09/02 10:42:50;;;;;;;7.75;2.47;;;21.90;99.90;;;;;;5034949;28;20018;-93
2023/09/02 10:45:17;;;;;;;5.70;2.28;;;21.90;99.70;;;;;;5033619;28;20037;-93
2023/09/02 10:47:47;;;;;;;5.55;2.47;;;22.00;99.10;;;;;;5033261;28;20495;-95
2023/09/02 10:50:20;;;;;;;6.38;2.83;;;22.20;98.60;;;;;;5033249;28;20033;-94
2023/09/02 10:52:49;;;;;;;6.10;2.95;;;22.30;98.00;;;;;;5033635;28;20030;-93
2023/09/02 10:55:14;;;;;;;5.63;2.90;;;22.30;97.30;;;;;;5033143;28;20473;-93
2023/09/02 10:57:51;;;;;;;8.25;2.25;;;22.30;97.10;;;;;;5032888;28;20052;-94
2023/09/02 11:00:24;;;;;;;6.47;2.10;;;22.60;97.40;;;;;;5039713;28;20033;-94
2023/09/02 11:02:54;;;;;;;5.30;1.88;;;22.60;96.40;;;;;;5035824;28;20072;-95
2023/09/02 11:05:21;;;;;;;6.15;2.10;;;22.80;95.90;;;;;;5034087;28;20068;-95
2023/09/02 11:07:49;;;;;;;4.15;2.20;;;22.70;95.40;;;;;;5036255;28;20045;-95
2023/09/02 11:10:16;;;;;;;4.63;2.00;;;22.60;94.80;;;;;;5027587;28;20112;-94
2023/09/02 11:13:00;;;;;;;4.43;1.92;;;22.50;94.60;;;;;;5035118;28;20440;-93
2023/09/02 11:15:27;;;;;;;4.10;2.15;;;22.40;94.50;;;;;;5041478;28;20018;-96
2023/09/02 11:17:54;;;;;;;6.22;2.10;;;22.40;94.30;;;;;;5055606;28;20093;-96
2023/09/02 11:20:27;;;;;;;8.02;2.75;;;22.30;93.90;;;;;;5053768;28;20025;-96
2023/09/02 11:23:05;;;;;;;7.57;2.30;;;22.20;93.90;;;;;;5053959;28;20018;-95
2023/09/02 11:25:34;;;;;;;4.85;2.05;;;22.40;93.90;;;;;;5054088;28;20025;-95
2023/09/02 11:28:10;;;;;;;3.03;2.08;;;22.80;93.90;;;;;;5055995;28;20052;-96
2023/09/02 11:30:39;;;;;;;5.40;2.30;;;23.20;93.40;;;;;;5054932;28;20045;-95
2023/09/02 11:33:09;;;;;;;6.45;2.30;;;23.70;91.90;;;;;;5034137;28;20041;-94
2023/09/02 11:35:36;;;;;;;3.42;1.67;;;24.10;90.60;;;;;;5046034;28;20571;-95
2023/09/02 11:38:16;;;;;;;5.55;1.67;;;24.50;89.30;;;;;;5050753;28;20102;-95
2023/09/02 11:40:41;;;;;;;2.83;1.70;;;24.50;86.60;;;;;;5046491;28;20093;-94
2023/09/02 11:43:08;;;;;;;6.88;1.50;;;24.70;85.90;;;;;;5048018;28;20036;-94
2023/09/02 11:45:35;;;;;;;3.40;1.60;;;25.00;84.50;;;;;;5048316;28;20038;-96
2023/09/02 11:48:06;;;;;;;2.35;1.48;;;25.30;83.60;;;;;;5049230;28;20034;-95
2023/09/02 11:50:32;;;;;;;3.70;1.80;;;25.60;81.90;;;;;;5047180;28;20096;-95
2023/09/02 11:52:58;;;;;;;3.97;1.75;;;25.70;80.20;;;;;;5049790;28;20103;-92
2023/09/02 11:55:25;;;;;;;2.17;1.70;;;25.90;79.20;;;;;;5053386;28;20045;-94
2023/09/02 11:57:52;;;;;;;3.60;1.63;;;26.10;78.70;;;;;;5053459;28;20033;-93
2023/09/02 12:00:20;;;;;;;2.90;1.50;;;26.20;77.90;;;;;;5051910;28;20033;-95
2023/09/02 12:02:46;;;;;;;4.78;2.13;;;26.20;76.80;;;;;;5050617;28;20105;-95
2023/09/02 12:05:16;;;;;;;3.17;1.58;;;26.10;77.40;;;;;;5045785;28;20041;-93
2023/09/02 12:07:50;;;;;;;3.90;1.50;;;25.90;76.50;;;;;;5048260;28;20140;-94
2023/09/02 12:10:24;;;;;;;3.60;1.85;;;25.80;76.80;;;;;;5043338;28;20080;-95
2023/09/02 12:12:50;;;;;;;4.93;1.60;;;25.60;77.00;;;;;;5044185;28;20017;-94
2023/09/02 12:15:20;;;;;;;5.13;1.52;;;25.60;77.30;;;;;;5056171;28;20029;-94
2023/09/02 12:17:47;;;;;;;5.22;1.40;;;25.60;77.10;;;;;;5052899;28;20033;-96
2023/09/02 12:20:15;;;;;;;3.15;1.38;;;25.40;76.60;;;;;;5049378;28;20033;-95
2023/09/02 12:22:48;;;;;;;3.20;1.73;;;25.30;76.80;;;;;;5055025;28;20076;-95
2023/09/02 12:25:25;;;;;;;4.93;2.15;;;25.30;77.00;;;;;;5037290;28;20018;-93
2023/09/02 12:28:18;;;;;;;2.33;1.50;;;25.60;77.30;;;;;;5044348;28;20024;-94
2023/09/02 12:30:50;;;;;;;2.60;1.40;;;26.20;76.90;;;;;;5056693;28;20036;-95
2023/09/02 12:33:18;;;;;;;3.20;1.80;;;26.80;75.40;;;;;;5055069;28;20025;-95
2023/09/02 12:35:59;;;;;;;2.38;1.50;;;27.20;73.80;;;;;;5040490;28;20013;-94